Domov
logo

Sponzorovaný hosting od WebSupport.sk
Vlastný virtuálny server od 5,65 € od WebSupport.sk

Aktuálne počasie

LZIB - letisko Bratislava

Hodnoty namerané: 25.06.2019, 23:30 SELČ
Aktuálny čas: 25.06.2019, 23:51 SELČ
Aktualizované: pred 21 min.
Teplota: 24°C
Rosný bod: 20°C
Vietor: 4 km/h 90° (V)
Dohľadnosť: viac ako 10 km
Stav počasia: bez zrážok
Oblačnosť: jasno
Vlhkosť vzduchu: 78 %
Tlak vzduchu: 1024 hPa
METAR: LZIB 252130Z 09002KT CAVOK 24/20 Q1024

LZKZ - letisko Košice

Hodnoty namerané: 25.06.2019, 23:30 SELČ
Aktuálny čas: 25.06.2019, 23:51 SELČ
Aktualizované: pred 21 min.
Teplota: 21°C
Rosný bod: 17°C
Vietor: 6 km/h 360° (S) kolíše v rozsahu 300°-30° (ZSZ-SSV)
Dohľadnosť: viac ako 10 km
Stav počasia: bez zrážok
Oblačnosť: jasno
Vlhkosť vzduchu: 78 %
Tlak vzduchu: 1026 hPa
METAR: LZKZ 252130Z 36003KT 300V030 CAVOK 21/17 Q1026

LZPP - letisko Piešťany

Hodnoty namerané: 25.06.2019, 23:30 SELČ
Aktuálny čas: 25.06.2019, 23:51 SELČ
Aktualizované: pred 21 min.
Teplota: 22°C
Rosný bod: 19°C
Vietor: 6 km/h 60° (VSV) kolíše v rozsahu 30°-90° (SSV-V)
Dohľadnosť: viac ako 10 km
Stav počasia: bez zrážok
Oblačnosť: oblačnosť nezistená
Vlhkosť vzduchu: 83 %
Tlak vzduchu: 1025 hPa
METAR: LZPP 252130Z AUTO 06003KT 030V090 9999 NCD 22/19 Q1025

LZTT - letisko Poprad Tatry

Hodnoty namerané: 25.06.2019, 23:30 SELČ
Aktuálny čas: 25.06.2019, 23:51 SELČ
Aktualizované: pred 21 min.
Teplota: 17°C
Rosný bod: 16°C
Vietor: 7 km/h 280° (Z)
Dohľadnosť: viac ako 10 km
Stav počasia: bez zrážok
Oblačnosť: jasno
Vlhkosť vzduchu: 94 %
Tlak vzduchu: 1028 hPa
METAR: LZTT 252130Z 28004KT CAVOK 17/16 Q1028

LZSL - letisko Sliač

Hodnoty namerané: 25.06.2019, 23:30 SELČ
Aktuálny čas: 25.06.2019, 23:51 SELČ
Aktualizované: pred 21 min.
Teplota: 20°C
Rosný bod: 18°C
Vietor: bezvetrie
Dohľadnosť: viac ako 10 km
Stav počasia: bez zrážok
Oblačnosť: jasno
Vlhkosť vzduchu: 88 %
Tlak vzduchu: 1027 hPa
METAR: LZSL 252130Z 00000KT CAVOK 20/18 Q1027

LZZI - letisko Žilina

Hodnoty namerané: 25.06.2019, 23:30 SELČ
Aktuálny čas: 25.06.2019, 23:51 SELČ
Aktualizované: pred 21 min.
Teplota: 21°C
Rosný bod: 18°C
Vietor: premenlivý 2 km/h
Dohľadnosť: viac ako 10 km
Stav počasia: bez zrážok
Oblačnosť: jasno
Vlhkosť vzduchu: 83 %
Tlak vzduchu: 1026 hPa
METAR: LZZI 252130Z VRB01KT CAVOK 21/18 Q1026

POZNÁMKY:

SEČ - stredoeurópsky čas (UTC+1hod.)

SELČ - stredoeurópsky letný čas (UTC+2hod.)

UTC - univerzálny svetový čas, GMT, ZULU

METAR - sú pravidelné kódované letecké meteorologické správy. Tie zostavujú a zverejňujú meteorologické stanice letísk v polhodinových/hodinových intervaloch. Na tejto stránke správy METAR zo slovenských letísk nájdete už v dekódovanej podobe.

hore